Morning Cindy — 3FQY7 — position and weather

sailwx.info

Track history (hours):
 
Tides and Currents Weather Stations Pressure Air Temp Water Temp Dewpoint Dewpoint Depression Visibility Wind Speed Wind Dir Waves Ship Positions

Morning Cindy

Last reported at 2017-Sep-13 22:05 UTC. Time now 2017-Sep-22 02:49 UTC.
Position N 06°08' E 001°19'.
Warning: this ship's position is 8 days out of date.

Length 199 m; draft 8.7 m.

Type: Cargo ship. MMSI: 353647000.

Date/timePositionNaut miles runAvg speedWind from/ knotsBaromVisibWave heightAir tempDewpointWater temp
2017-Sep-13 22:05N 06°08' E 001°19'1 6.8
2017-Sep-13 21:52N 06°08' E 001°17'55 2.8
2017-Sep-13 02:04N 05°29' E 000°39'115.0
2017-Sep-13 01:58N 05°29' E 000°37'715.0
2017-Sep-13 01:30N 05°29' E 000°30'715.0
2017-Sep-13 01:00N 05°29' E 000°23'714.4
2017-Sep-13 00:30N 05°29' E 000°15'612.4
2017-Sep-13 00:01N 05°29' E 000°09'4 8.0
2017-Sep-12 23:30N 05°31' E 000°06'510.0
2017-Sep-12 23:00N 05°36' E 000°04'4 7.6
2017-Sep-12 22:30N 05°38' E 000°01'0 0.7
2017-Sep-12 22:00N 05°38' E 000°00'0 0.0
2017-Sep-12 21:30N 05°38' E 000°00'0 0.0
2017-Sep-12 21:00N 05°38' E 000°00'0 0.0
2017-Sep-12 20:30N 05°38' E 000°00'0 0.0
2017-Sep-12 20:00N 05°38' E 000°00'0 0.0
2017-Sep-12 19:30N 05°38' E 000°00'0 0.0
2017-Sep-12 19:00N 05°38' E 000°00'0 0.0
2017-Sep-12 18:30N 05°38' E 000°00'0 0.0
2017-Sep-12 18:00N 05°38' E 000°00'0 0.0
2017-Sep-12 17:30N 05°38' E 000°00'0 0.0
2017-Sep-12 17:00N 05°38' E 000°00'0 0.0
2017-Sep-12 16:30N 05°38' E 000°00'0 0.0
2017-Sep-12 16:00N 05°38' E 000°00'0 0.0
2017-Sep-12 15:30N 05°38' E 000°00'0 0.0
2017-Sep-12 15:00N 05°38' E 000°00'0 0.0
2017-Sep-12 14:30N 05°38' E 000°00'0 0.0
2017-Sep-12 14:00N 05°38' E 000°00'0 0.0
2017-Sep-12 13:30N 05°38' E 000°00'0 0.0
2017-Sep-12 13:00N 05°38' E 000°00'0 0.0
2017-Sep-12 12:30N 05°38' E 000°00'0 0.0
2017-Sep-12 12:00N 05°38' E 000°00'0 0.0
2017-Sep-12 11:30N 05°38' E 000°00'0 0.0
2017-Sep-12 11:00N 05°38' E 000°00'0 0.0
2017-Sep-12 10:30N 05°38' E 000°00'0 0.0
2017-Sep-12 10:00N 05°38' E 000°00'0 0.2
2017-Sep-12 09:30N 05°38' E 000°01'1 1.8
2017-Sep-12 09:00N 05°38' E 000°01'2 3.5
2017-Sep-12 08:30N 05°37' E 000°03'1 2.6
2017-Sep-12 08:00N 05°36' E 000°04'0 0.7
2017-Sep-12 07:30N 05°36' E 000°04'2 3.9
2017-Sep-12 07:00N 05°34' E 000°04'3 5.5
2017-Sep-12 06:30N 05°32' E 000°06'4 8.6
2017-Sep-12 06:00N 05°30' E 000°10'5 9.1
2017-Sep-12 05:30N 05°30' E 000°14'5 9.1
2017-Sep-12 05:00N 05°30' E 000°19'5 9.9
2017-Sep-12 04:30N 05°29' E 000°24'714.3
2017-Sep-12 04:00N 05°29' E 000°31'  
2017-Sep-09 16:27N 04°51' E 001°12'11017.8
2017-Sep-09 10:16N 04°26' W 000°36'2717.7
2017-Sep-09 08:44N 04°15' W 001°01'417.5
2017-Sep-09 08:29N 04°14' W 001°05'917.4
2017-Sep-09 07:58N 04°14' W 001°14'817.3
2017-Sep-09 07:29N 04°13' W 001°22'817.0
2017-Sep-09 06:59N 04°12' W 001°31'817.0
2017-Sep-09 06:29N 04°11' W 001°39'1316.9
2017-Sep-09 05:42N 04°09' W 001°52'417.1
2017-Sep-09 05:30N 04°09' W 001°56'1017.3
2017-Sep-09 04:56N 04°08' W 002°06'817.3
2017-Sep-09 04:30N 04°07' W 002°13'  
Track history (hours):
 
Tides and Currents Weather Stations Pressure Air Temp Water Temp Dewpoint Dewpoint Depression Visibility Wind Speed Wind Dir Waves Ship Positions

Morning Cindy

Last reported at 2017-Sep-13 22:05 UTC. Time now 2017-Sep-22 02:49 UTC.
Position N 06°08' E 001°19'.
Warning: this ship's position is 8 days out of date.

Length 199 m; draft 8.7 m.

Type: Cargo ship. MMSI: 353647000.

Date/timePositionNaut miles runAvg speedWind from/ knotsBaromVisibWave heightAir tempDewpointWater temp
2017-Sep-13 22:05N 06°08' E 001°19'1 6.8
2017-Sep-13 21:52N 06°08' E 001°17'55 2.8
2017-Sep-13 02:04N 05°29' E 000°39'115.0
2017-Sep-13 01:58N 05°29' E 000°37'715.0
2017-Sep-13 01:30N 05°29' E 000°30'715.0
2017-Sep-13 01:00N 05°29' E 000°23'714.4
2017-Sep-13 00:30N 05°29' E 000°15'612.4
2017-Sep-13 00:01N 05°29' E 000°09'4 8.0
2017-Sep-12 23:30N 05°31' E 000°06'510.0
2017-Sep-12 23:00N 05°36' E 000°04'4 7.6
2017-Sep-12 22:30N 05°38' E 000°01'0 0.7
2017-Sep-12 22:00N 05°38' E 000°00'0 0.0
2017-Sep-12 21:30N 05°38' E 000°00'0 0.0
2017-Sep-12 21:00N 05°38' E 000°00'0 0.0
2017-Sep-12 20:30N 05°38' E 000°00'0 0.0
2017-Sep-12 20:00N 05°38' E 000°00'0 0.0
2017-Sep-12 19:30N 05°38' E 000°00'0 0.0
2017-Sep-12 19:00N 05°38' E 000°00'0 0.0
2017-Sep-12 18:30N 05°38' E 000°00'0 0.0
2017-Sep-12 18:00N 05°38' E 000°00'0 0.0
2017-Sep-12 17:30N 05°38' E 000°00'0 0.0
2017-Sep-12 17:00N 05°38' E 000°00'0 0.0
2017-Sep-12 16:30N 05°38' E 000°00'0 0.0
2017-Sep-12 16:00N 05°38' E 000°00'0 0.0
2017-Sep-12 15:30N 05°38' E 000°00'0 0.0
2017-Sep-12 15:00N 05°38' E 000°00'0 0.0
2017-Sep-12 14:30N 05°38' E 000°00'0 0.0
2017-Sep-12 14:00N 05°38' E 000°00'0 0.0
2017-Sep-12 13:30N 05°38' E 000°00'0 0.0
2017-Sep-12 13:00N 05°38' E 000°00'0 0.0
2017-Sep-12 12:30N 05°38' E 000°00'0 0.0
2017-Sep-12 12:00N 05°38' E 000°00'0 0.0
2017-Sep-12 11:30N 05°38' E 000°00'0 0.0
2017-Sep-12 11:00N 05°38' E 000°00'0 0.0
2017-Sep-12 10:30N 05°38' E 000°00'0 0.0
2017-Sep-12 10:00N 05°38' E 000°00'0 0.2
2017-Sep-12 09:30N 05°38' E 000°01'1 1.8
2017-Sep-12 09:00N 05°38' E 000°01'2 3.5
2017-Sep-12 08:30N 05°37' E 000°03'1 2.6
2017-Sep-12 08:00N 05°36' E 000°04'0 0.7
2017-Sep-12 07:30N 05°36' E 000°04'2 3.9
2017-Sep-12 07:00N 05°34' E 000°04'3 5.5
2017-Sep-12 06:30N 05°32' E 000°06'4 8.6
2017-Sep-12 06:00N 05°30' E 000°10'5 9.1
2017-Sep-12 05:30N 05°30' E 000°14'5 9.1
2017-Sep-12 05:00N 05°30' E 000°19'5 9.9
2017-Sep-12 04:30N 05°29' E 000°24'714.3
2017-Sep-12 04:00N 05°29' E 000°31'  
2017-Sep-09 16:27N 04°51' E 001°12'11017.8
2017-Sep-09 10:16N 04°26' W 000°36'2717.7
2017-Sep-09 08:44N 04°15' W 001°01'417.5
2017-Sep-09 08:29N 04°14' W 001°05'917.4
2017-Sep-09 07:58N 04°14' W 001°14'817.3
2017-Sep-09 07:29N 04°13' W 001°22'817.0
2017-Sep-09 06:59N 04°12' W 001°31'817.0
2017-Sep-09 06:29N 04°11' W 001°39'1316.9
2017-Sep-09 05:42N 04°09' W 001°52'417.1
2017-Sep-09 05:30N 04°09' W 001°56'1017.3
2017-Sep-09 04:56N 04°08' W 002°06'817.3
2017-Sep-09 04:30N 04°07' W 002°13'  

Dump ship's entire track history